Hondo — WDI7389 — position and weather

sailwx.info

Track history (hours):
 
Tides and Currents Weather Stations Pressure Air Temp Water Temp Dewpoint Dewpoint Depression Visibility Wind Speed Wind Dir Waves Ship Positions

Hondo

Owner: Kirby Inland Marine LP, Houston, TX. More information available from US FCC via Universal Licensing System and Coast Guard Vessel Documentation Center.

Last reported at 2017-Nov-15 13:05 UTC. Time now 2017-Nov-18 01:10 UTC.
Position N 29°51' W 091°55'.

Length 291 m; draft 2.8 m.

Type: . MMSI: 367728240.

Date/timePositionNaut miles runAvg speedWind from/ knotsBaromVisibWave heightAir tempDewpointWater temp
2017-Nov-15 13:05N 29°51' W 091°55'0 4.7
2017-Nov-15 12:58N 29°51' W 091°56'2 4.7
2017-Nov-15 12:30N 29°50' W 091°58'2 4.8
2017-Nov-15 12:00N 29°49' W 092°01'2 4.9
2017-Nov-15 11:30N 29°49' W 092°04'2 4.9
2017-Nov-15 11:00N 29°48' W 092°06'2 4.9
2017-Nov-15 10:30N 29°47' W 092°09'2 4.1
2017-Nov-15 10:00N 29°47' W 092°11'1 2.3
2017-Nov-15 09:30N 29°47' W 092°13'1 1.4
2017-Nov-15 09:00N 29°47' W 092°13'1 1.4
2017-Nov-15 08:30N 29°48' W 092°14'1 2.0
2017-Nov-15 08:00N 29°48' W 092°15'2 4.1
2017-Nov-15 07:30N 29°49' W 092°17'2 3.8
2017-Nov-15 06:59N 29°50' W 092°19'2 4.0
2017-Nov-15 06:30N 29°51' W 092°21'2 3.4
2017-Nov-15 06:00N 29°52' W 092°22'34 4.0
2017-Nov-14 21:30N 29°56' W 093°01'2 3.9
2017-Nov-14 21:00N 29°56' W 093°04'2 4.1
2017-Nov-14 20:30N 29°56' W 093°06'2 3.8
2017-Nov-14 20:00N 29°56' W 093°08'2 3.8
2017-Nov-14 19:30N 29°57' W 093°10'2 4.3
2017-Nov-14 19:00N 29°58' W 093°12'2 4.3
2017-Nov-14 18:30N 29°60' W 093°13'2 3.7
2017-Nov-14 18:00N 30°02' W 093°14'2 3.7
2017-Nov-14 17:30N 30°03' W 093°16'2 3.4
2017-Nov-14 17:00N 30°05' W 093°17'1 2.5
2017-Nov-14 16:30N 30°05' W 093°18'1 2.0
2017-Nov-14 16:00N 30°06' W 093°18'0 1.0
2017-Nov-14 15:30N 30°06' W 093°19'0 0.0
2017-Nov-14 15:00N 30°06' W 093°19'0 0.0
2017-Nov-14 14:30N 30°06' W 093°19'0 0.0
2017-Nov-14 13:59N 30°06' W 093°19'1 1.8
2017-Nov-14 13:30N 30°05' W 093°20'2 3.5
2017-Nov-14 13:00N 30°04' W 093°21'2 3.1
2017-Nov-14 12:30N 30°04' W 093°23'  
2017-Nov-08 19:26N 30°04' W 093°32'2 5.6
2017-Nov-08 19:00N 30°04' W 093°29'3 5.1
2017-Nov-08 18:30N 30°04' W 093°26'2 5.0
2017-Nov-08 18:00N 30°04' W 093°23'2 4.2
2017-Nov-08 17:30N 30°04' W 093°21'2 4.9
2017-Nov-08 17:00N 30°06' W 093°19'2 3.3
2017-Nov-08 16:30N 30°05' W 093°17'2 3.9
2017-Nov-08 16:00N 30°04' W 093°16'2 4.1
2017-Nov-08 15:30N 30°02' W 093°15'2 4.7
2017-Nov-08 15:00N 29°60' W 093°13'3 5.3
2017-Nov-08 14:30N 29°58' W 093°11'3 5.0
2017-Nov-08 14:00N 29°56' W 093°09'34 3.9
2017-Nov-08 05:20N 29°54' W 092°30'2 4.8
2017-Nov-08 04:53N 29°54' W 092°28'2 4.7
2017-Nov-08 04:30N 29°53' W 092°26'3 4.5
2017-Nov-08 03:48N 29°52' W 092°22'1 4.3
2017-Nov-08 03:29N 29°51' W 092°22'2 4.4
2017-Nov-08 03:00N 29°50' W 092°19'2 4.2
2017-Nov-08 02:30N 29°49' W 092°17'2 4.5
2017-Nov-08 02:00N 29°48' W 092°15'2 4.5
2017-Nov-08 01:30N 29°47' W 092°13'2 3.4
2017-Nov-08 01:00N 29°47' W 092°11'2 4.2
2017-Nov-08 00:30N 29°47' W 092°08'2 4.0
2017-Nov-08 00:00N 29°48' W 092°06'3 5.2
2017-Nov-07 23:30N 29°49' W 092°03'3 5.2
2017-Nov-07 22:53N 29°50' W 091°60'2 4.9
2017-Nov-07 22:28N 29°50' W 091°58'1 2.0
2017-Nov-07 22:00N 29°51' W 091°57'26 0.6
2017-Nov-06 02:09N 29°54' W 092°27'1 4.4
2017-Nov-06 01:54N 29°53' W 092°26'2 4.1
2017-Nov-06 01:28N 29°53' W 092°24'3 4.7
2017-Nov-06 00:51N 29°51' W 092°21'2 4.5
2017-Nov-06 00:30N 29°50' W 092°20'2 4.6
2017-Nov-06 00:00N 29°49' W 092°17'1 2.8
2017-Nov-05 23:30N 29°49' W 092°16'2 3.9
2017-Nov-05 23:00N 29°48' W 092°14'2 5.0
2017-Nov-05 22:30N 29°47' W 092°11'0 0.9
2017-Nov-05 22:00N 29°47' W 092°11'2 3.1
2017-Nov-05 21:30N 29°47' W 092°09'2 4.9
2017-Nov-05 21:00N 29°48' W 092°06'2 4.6
2017-Nov-05 20:30N 29°48' W 092°04'5 4.6
2017-Nov-05 19:20N 29°50' W 091°58'  
Track history (hours):
 
Tides and Currents Weather Stations Pressure Air Temp Water Temp Dewpoint Dewpoint Depression Visibility Wind Speed Wind Dir Waves Ship Positions

Hondo

Owner: Kirby Inland Marine LP, Houston, TX. More information available from US FCC via Universal Licensing System and Coast Guard Vessel Documentation Center.

Last reported at 2017-Nov-15 13:05 UTC. Time now 2017-Nov-18 01:10 UTC.
Position N 29°51' W 091°55'.

Length 291 m; draft 2.8 m.

Type: . MMSI: 367728240.

Date/timePositionNaut miles runAvg speedWind from/ knotsBaromVisibWave heightAir tempDewpointWater temp
2017-Nov-15 13:05N 29°51' W 091°55'0 4.7
2017-Nov-15 12:58N 29°51' W 091°56'2 4.7
2017-Nov-15 12:30N 29°50' W 091°58'2 4.8
2017-Nov-15 12:00N 29°49' W 092°01'2 4.9
2017-Nov-15 11:30N 29°49' W 092°04'2 4.9
2017-Nov-15 11:00N 29°48' W 092°06'2 4.9
2017-Nov-15 10:30N 29°47' W 092°09'2 4.1
2017-Nov-15 10:00N 29°47' W 092°11'1 2.3
2017-Nov-15 09:30N 29°47' W 092°13'1 1.4
2017-Nov-15 09:00N 29°47' W 092°13'1 1.4
2017-Nov-15 08:30N 29°48' W 092°14'1 2.0
2017-Nov-15 08:00N 29°48' W 092°15'2 4.1
2017-Nov-15 07:30N 29°49' W 092°17'2 3.8
2017-Nov-15 06:59N 29°50' W 092°19'2 4.0
2017-Nov-15 06:30N 29°51' W 092°21'2 3.4
2017-Nov-15 06:00N 29°52' W 092°22'34 4.0
2017-Nov-14 21:30N 29°56' W 093°01'2 3.9
2017-Nov-14 21:00N 29°56' W 093°04'2 4.1
2017-Nov-14 20:30N 29°56' W 093°06'2 3.8
2017-Nov-14 20:00N 29°56' W 093°08'2 3.8
2017-Nov-14 19:30N 29°57' W 093°10'2 4.3
2017-Nov-14 19:00N 29°58' W 093°12'2 4.3
2017-Nov-14 18:30N 29°60' W 093°13'2 3.7
2017-Nov-14 18:00N 30°02' W 093°14'2 3.7
2017-Nov-14 17:30N 30°03' W 093°16'2 3.4
2017-Nov-14 17:00N 30°05' W 093°17'1 2.5
2017-Nov-14 16:30N 30°05' W 093°18'1 2.0
2017-Nov-14 16:00N 30°06' W 093°18'0 1.0
2017-Nov-14 15:30N 30°06' W 093°19'0 0.0
2017-Nov-14 15:00N 30°06' W 093°19'0 0.0
2017-Nov-14 14:30N 30°06' W 093°19'0 0.0
2017-Nov-14 13:59N 30°06' W 093°19'1 1.8
2017-Nov-14 13:30N 30°05' W 093°20'2 3.5
2017-Nov-14 13:00N 30°04' W 093°21'2 3.1
2017-Nov-14 12:30N 30°04' W 093°23'  
2017-Nov-08 19:26N 30°04' W 093°32'2 5.6
2017-Nov-08 19:00N 30°04' W 093°29'3 5.1
2017-Nov-08 18:30N 30°04' W 093°26'2 5.0
2017-Nov-08 18:00N 30°04' W 093°23'2 4.2
2017-Nov-08 17:30N 30°04' W 093°21'2 4.9
2017-Nov-08 17:00N 30°06' W 093°19'2 3.3
2017-Nov-08 16:30N 30°05' W 093°17'2 3.9
2017-Nov-08 16:00N 30°04' W 093°16'2 4.1
2017-Nov-08 15:30N 30°02' W 093°15'2 4.7
2017-Nov-08 15:00N 29°60' W 093°13'3 5.3
2017-Nov-08 14:30N 29°58' W 093°11'3 5.0
2017-Nov-08 14:00N 29°56' W 093°09'34 3.9
2017-Nov-08 05:20N 29°54' W 092°30'2 4.8
2017-Nov-08 04:53N 29°54' W 092°28'2 4.7
2017-Nov-08 04:30N 29°53' W 092°26'3 4.5
2017-Nov-08 03:48N 29°52' W 092°22'1 4.3
2017-Nov-08 03:29N 29°51' W 092°22'2 4.4
2017-Nov-08 03:00N 29°50' W 092°19'2 4.2
2017-Nov-08 02:30N 29°49' W 092°17'2 4.5
2017-Nov-08 02:00N 29°48' W 092°15'2 4.5
2017-Nov-08 01:30N 29°47' W 092°13'2 3.4
2017-Nov-08 01:00N 29°47' W 092°11'2 4.2
2017-Nov-08 00:30N 29°47' W 092°08'2 4.0
2017-Nov-08 00:00N 29°48' W 092°06'3 5.2
2017-Nov-07 23:30N 29°49' W 092°03'3 5.2
2017-Nov-07 22:53N 29°50' W 091°60'2 4.9
2017-Nov-07 22:28N 29°50' W 091°58'1 2.0
2017-Nov-07 22:00N 29°51' W 091°57'26 0.6
2017-Nov-06 02:09N 29°54' W 092°27'1 4.4
2017-Nov-06 01:54N 29°53' W 092°26'2 4.1
2017-Nov-06 01:28N 29°53' W 092°24'3 4.7
2017-Nov-06 00:51N 29°51' W 092°21'2 4.5
2017-Nov-06 00:30N 29°50' W 092°20'2 4.6
2017-Nov-06 00:00N 29°49' W 092°17'1 2.8
2017-Nov-05 23:30N 29°49' W 092°16'2 3.9
2017-Nov-05 23:00N 29°48' W 092°14'2 5.0
2017-Nov-05 22:30N 29°47' W 092°11'0 0.9
2017-Nov-05 22:00N 29°47' W 092°11'2 3.1
2017-Nov-05 21:30N 29°47' W 092°09'2 4.9
2017-Nov-05 21:00N 29°48' W 092°06'2 4.6
2017-Nov-05 20:30N 29°48' W 092°04'5 4.6
2017-Nov-05 19:20N 29°50' W 091°58'  

Dump ship's entire track history